createdAt,value
2016-10-10T00:01:54.895Z,9.23
2016-10-10T00:06:51.761Z,9.21
2016-10-10T00:11:48.304Z,9.19
2016-10-10T00:16:45.585Z,9.37
2016-10-10T00:21:42.010Z,9.41
2016-10-10T00:26:38.860Z,9.40
2016-10-10T00:31:35.522Z,9.28
2016-10-10T00:36:32.586Z,9.29
2016-10-10T00:41:29.088Z,9.25
2016-10-10T00:46:25.586Z,9.23
2016-10-10T00:51:22.509Z,9.06
2016-10-10T00:56:20.133Z,9.04
2016-10-10T01:01:16.303Z,9.03
2016-10-10T01:06:12.909Z,8.95
2016-10-10T01:11:09.055Z,8.97
2016-10-10T01:16:05.654Z,8.97
2016-10-10T01:21:03.520Z,9.02
2016-10-10T01:25:59.629Z,8.84
2016-10-10T01:30:57.197Z,8.71
2016-10-10T01:35:53.517Z,8.61
2016-10-10T01:40:50.234Z,8.52
2016-10-10T01:45:46.653Z,8.28
2016-10-10T01:50:42.676Z,8.10
2016-10-10T01:55:39.269Z,7.94
2016-10-10T02:00:35.725Z,7.91
2016-10-10T02:05:32.286Z,8.00
2016-10-10T02:10:28.451Z,8.20
2016-10-10T02:15:25.125Z,8.27
2016-10-10T02:20:24.557Z,8.19
2016-10-10T02:25:21.380Z,8.10
2016-10-10T02:30:17.164Z,7.91
2016-10-10T02:35:13.437Z,8.10
2016-10-10T02:40:10.109Z,7.82
2016-10-10T02:45:06.602Z,7.48
2016-10-10T02:50:03.114Z,7.38
2016-10-10T02:54:59.491Z,7.48
2016-10-10T02:59:56.145Z,7.76
2016-10-10T03:04:52.691Z,7.75
2016-10-10T03:09:49.305Z,7.93
2016-10-10T03:14:45.737Z,7.82
2016-10-10T03:19:42.297Z,7.87
2016-10-10T03:24:38.541Z,7.94
2016-10-10T03:29:35.174Z,8.03
2016-10-10T03:34:31.712Z,7.87
2016-10-10T03:39:28.129Z,7.69
2016-10-10T03:44:24.772Z,7.42
2016-10-10T03:49:21.150Z,7.47
2016-10-10T03:54:17.645Z,7.60
2016-10-10T03:59:14.039Z,7.42
2016-10-10T04:04:10.298Z,7.38
2016-10-10T04:09:06.635Z,7.47
2016-10-10T04:14:03.290Z,7.53
2016-10-10T04:18:59.668Z,7.70
2016-10-10T04:23:56.347Z,7.80
2016-10-10T04:28:52.858Z,7.75
2016-10-10T04:33:49.582Z,7.75
2016-10-10T04:38:46.360Z,7.76
2016-10-10T04:43:43.098Z,7.79
2016-10-10T04:48:39.608Z,7.51
2016-10-10T04:53:36.277Z,7.42
2016-10-10T04:58:32.612Z,7.11
2016-10-10T05:03:29.073Z,7.17
2016-10-10T05:08:25.556Z,7.18
2016-10-10T05:13:22.046Z,7.17
2016-10-10T05:18:18.563Z,7.32
2016-10-10T05:23:14.675Z,7.32
2016-10-10T05:28:11.320Z,7.43
2016-10-10T05:33:07.822Z,7.36
2016-10-10T05:38:04.168Z,7.13
2016-10-10T05:43:00.598Z,7.14
2016-10-10T05:47:56.955Z,6.85
2016-10-10T05:52:53.384Z,6.84
2016-10-10T05:57:49.985Z,6.82
2016-10-10T06:02:46.381Z,6.66
2016-10-10T06:07:42.587Z,6.46
2016-10-10T06:12:39.019Z,6.69
2016-10-10T06:17:35.559Z,6.88
2016-10-10T06:22:31.907Z,6.93
2016-10-10T06:27:28.582Z,7.10
2016-10-10T06:32:25.239Z,7.15
2016-10-10T06:37:21.572Z,7.13
2016-10-10T06:42:18.937Z,7.18
2016-10-10T06:47:15.495Z,7.11
2016-10-10T06:52:12.193Z,7.20
2016-10-10T06:57:08.913Z,7.18
2016-10-10T07:02:05.748Z,7.10
2016-10-10T07:07:02.935Z,7.18
2016-10-10T07:11:59.421Z,7.21
2016-10-10T07:16:55.524Z,7.13
2016-10-10T07:21:52.489Z,6.97
2016-10-10T07:26:49.238Z,7.18
2016-10-10T07:31:45.981Z,7.17
2016-10-10T07:36:42.554Z,7.29
2016-10-10T07:41:39.401Z,7.32
2016-10-10T07:51:38.170Z,7.50
2016-10-10T07:56:34.740Z,7.61
2016-10-10T08:01:31.312Z,7.42
2016-10-10T08:06:28.192Z,7.61
2016-10-10T08:11:24.951Z,8.08
2016-10-10T08:16:24.195Z,8.31
2016-10-10T08:21:20.604Z,8.31
2016-10-10T08:26:17.163Z,8.52
2016-10-10T08:31:14.879Z,8.61
2016-10-10T08:36:12.106Z,8.28
2016-10-10T08:41:08.433Z,8.20
2016-10-10T08:46:05.128Z,8.61
2016-10-10T08:51:02.076Z,9.04
2016-10-10T08:55:58.951Z,9.46
2016-10-10T09:00:55.488Z,9.51
2016-10-10T09:05:52.093Z,9.23
2016-10-10T09:10:48.538Z,8.78
2016-10-10T09:15:45.076Z,9.55
2016-10-10T09:20:41.945Z,9.97
2016-10-10T09:25:38.738Z,9.99
2016-10-10T09:30:35.517Z,10.35
2016-10-10T09:35:32.758Z,10.59
2016-10-10T09:40:29.353Z,10.57
2016-10-10T09:45:26.232Z,10.90
2016-10-10T09:50:23.635Z,10.87
2016-10-10T09:55:20.604Z,11.26
2016-10-10T10:00:18.046Z,10.93
2016-10-10T10:05:14.015Z,10.44
2016-10-10T10:10:10.454Z,10.31
2016-10-10T10:15:06.808Z,10.02
2016-10-10T10:20:03.432Z,9.91
2016-10-10T10:24:59.344Z,9.55
2016-10-10T10:29:55.560Z,9.66
2016-10-10T10:34:51.649Z,9.65
2016-10-10T10:39:50.356Z,9.98
2016-10-10T10:44:47.251Z,10.48
2016-10-10T10:49:43.451Z,10.60
2016-10-10T10:54:40.153Z,10.37
2016-10-10T10:59:37.186Z,11.77
2016-10-10T11:04:34.404Z,11.99
2016-10-10T11:09:31.005Z,11.84
2016-10-10T11:14:28.184Z,12.15
2016-10-10T11:19:24.309Z,11.25
2016-10-10T11:24:20.325Z,10.75
2016-10-10T11:29:16.734Z,10.56
2016-10-10T11:34:13.560Z,11.04
2016-10-10T11:39:10.504Z,11.04
2016-10-10T11:44:07.091Z,11.32
2016-10-10T11:49:04.275Z,11.32
2016-10-10T11:54:01.193Z,11.22
2016-10-10T11:58:58.564Z,11.51
2016-10-10T12:03:55.294Z,12.09
2016-10-10T12:08:54.131Z,12.07
2016-10-10T12:13:50.755Z,12.31
2016-10-10T12:18:47.803Z,12.58
2016-10-10T12:23:44.276Z,12.49
2016-10-10T12:28:41.055Z,12.47
2016-10-10T12:33:37.317Z,12.35
2016-10-10T12:38:34.378Z,12.13
2016-10-10T12:43:30.577Z,12.57
2016-10-10T12:48:27.542Z,12.42
2016-10-10T12:53:24.276Z,12.40
2016-10-10T12:58:20.630Z,11.77
2016-10-10T13:03:16.692Z,11.68
2016-10-10T13:08:13.350Z,11.50
2016-10-10T13:13:10.864Z,11.36
2016-10-10T13:18:08.433Z,11.30
2016-10-10T13:23:04.317Z,11.33
2016-10-10T13:28:00.688Z,11.19
2016-10-10T13:32:57.175Z,11.02
2016-10-10T13:37:53.882Z,11.35
2016-10-10T13:42:52.088Z,11.48
2016-10-10T13:47:48.503Z,11.52
2016-10-10T13:52:45.179Z,11.83
2016-10-10T13:57:41.947Z,11.94
2016-10-10T14:02:38.735Z,12.03
2016-10-10T14:07:36.320Z,12.22
2016-10-10T14:12:32.441Z,11.83
2016-10-10T14:17:28.845Z,11.88
2016-10-10T14:22:25.546Z,12.15
2016-10-10T14:27:22.107Z,12.17
2016-10-10T14:32:18.682Z,12.18
2016-10-10T14:37:16.680Z,12.40
2016-10-10T14:42:12.708Z,12.31
2016-10-10T14:47:09.412Z,12.09
2016-10-10T14:52:05.799Z,11.80
2016-10-10T14:57:03.164Z,11.43
2016-10-10T15:01:59.266Z,11.19
2016-10-10T15:06:55.681Z,11.27
2016-10-10T15:11:52.642Z,11.59
2016-10-10T15:16:49.565Z,11.54
2016-10-10T15:21:45.927Z,11.29
2016-10-10T15:26:42.653Z,11.15
2016-10-10T15:31:40.884Z,11.23
2016-10-10T15:36:37.405Z,11.10
2016-10-10T15:41:34.304Z,11.00
2016-10-10T15:46:32.223Z,10.79
2016-10-10T15:51:28.359Z,10.67
2016-10-10T15:56:24.947Z,10.51
2016-10-10T16:01:21.587Z,10.30
2016-10-10T16:06:18.057Z,10.15
2016-10-10T16:11:15.150Z,9.87
2016-10-10T16:16:11.157Z,9.80
2016-10-10T16:21:07.828Z,9.80
2016-10-10T16:26:04.639Z,9.68
2016-10-10T16:31:01.015Z,9.54
2016-10-10T16:35:57.333Z,9.54
2016-10-10T16:40:53.760Z,9.50
2016-10-10T16:45:50.268Z,9.34
2016-10-10T16:50:46.794Z,9.26
2016-10-10T16:55:43.322Z,9.18
2016-10-10T17:00:39.802Z,9.03
2016-10-10T17:05:36.926Z,9.08
2016-10-10T17:10:33.383Z,9.00
2016-10-10T17:15:29.954Z,8.97
2016-10-10T17:20:28.599Z,9.08
2016-10-10T17:25:24.593Z,9.16
2016-10-10T17:30:20.990Z,9.10
2016-10-10T17:35:17.507Z,9.00
2016-10-10T17:40:14.059Z,9.03
2016-10-10T17:45:13.020Z,8.92
2016-10-10T17:50:08.462Z,8.87
2016-10-10T17:55:05.147Z,8.61
2016-10-10T18:00:01.374Z,8.60
2016-10-10T18:04:57.908Z,8.51
2016-10-10T18:09:54.681Z,8.33
2016-10-10T18:14:50.975Z,8.24
2016-10-10T18:19:47.452Z,8.28
2016-10-10T18:24:43.968Z,8.28
2016-10-10T18:29:40.566Z,8.46
2016-10-10T18:34:36.616Z,8.49
2016-10-10T18:39:33.218Z,8.56
2016-10-10T18:44:29.741Z,8.51
2016-10-10T18:49:26.569Z,8.38
2016-10-10T18:54:22.973Z,8.28
2016-10-10T18:59:20.218Z,8.33
2016-10-10T19:04:16.782Z,8.37
2016-10-10T19:09:13.379Z,8.36
2016-10-10T19:14:10.146Z,8.46
2016-10-10T19:19:06.575Z,8.38
2016-10-10T19:24:03.139Z,8.46
2016-10-10T19:28:59.548Z,8.45
2016-10-10T19:33:56.110Z,8.49
2016-10-10T19:38:52.889Z,8.58
2016-10-10T19:43:49.352Z,8.61
2016-10-10T19:48:45.963Z,8.58
2016-10-10T19:53:42.608Z,8.60
2016-10-10T19:58:38.936Z,8.61
2016-10-10T20:03:36.882Z,8.46
2016-10-10T20:08:33.148Z,8.44
2016-10-10T20:13:29.698Z,8.45
2016-10-10T20:18:26.128Z,8.52
2016-10-10T20:23:22.458Z,8.33
2016-10-10T20:28:18.725Z,8.20
2016-10-10T20:33:15.145Z,8.24
2016-10-10T20:38:12.702Z,8.27
2016-10-10T20:43:09.001Z,8.28
2016-10-10T20:48:05.308Z,8.31
2016-10-10T20:53:01.948Z,8.27
2016-10-10T20:57:58.610Z,8.13
2016-10-10T21:02:55.323Z,8.19
2016-10-10T21:07:51.752Z,8.13
2016-10-10T21:12:48.297Z,7.98
2016-10-10T21:17:44.847Z,7.83
2016-10-10T21:22:41.356Z,7.69
2016-10-10T21:27:38.622Z,7.53
2016-10-10T21:32:34.754Z,7.47
2016-10-10T21:37:30.900Z,7.45
2016-10-10T21:42:27.322Z,7.51
2016-10-10T21:47:25.608Z,7.54
2016-10-10T21:52:21.889Z,7.63
2016-10-10T21:57:19.985Z,7.57
2016-10-10T22:02:16.308Z,7.35
2016-10-10T22:07:12.730Z,7.28
2016-10-10T22:12:09.182Z,7.18
2016-10-10T22:17:06.221Z,7.03
2016-10-10T22:22:02.384Z,6.99
2016-10-10T22:26:58.874Z,6.81
2016-10-10T22:31:55.607Z,6.72
2016-10-10T22:36:51.896Z,6.62
2016-10-10T22:41:48.252Z,6.51
2016-10-10T22:46:44.769Z,6.56
2016-10-10T22:51:41.625Z,6.36
2016-10-10T22:56:37.741Z,6.39
2016-10-10T23:01:33.866Z,6.35
2016-10-10T23:06:31.284Z,6.24
2016-10-10T23:11:27.767Z,6.17
2016-10-10T23:16:24.351Z,6.11
2016-10-10T23:21:21.239Z,5.94
2016-10-10T23:26:17.909Z,5.99
2016-10-10T23:31:14.368Z,5.93
2016-10-10T23:36:10.908Z,5.90
2016-10-10T23:41:07.316Z,5.73
2016-10-10T23:46:03.619Z,5.79
2016-10-10T23:51:00.825Z,5.69
2016-10-10T23:55:56.879Z,5.66
